sensor_id;sensor_type;location;lat;lon;timestamp;pressure;altitude;pressure_sealevel;temperature;humidity
56719;BME280;42597;40.636;0.278;2023-08-20T00:00:13;97537.75;;;26.39;100.00
56719;BME280;42597;40.636;0.278;2023-08-20T00:02:43;97544.66;;;26.47;100.00
56719;BME280;42597;40.636;0.278;2023-08-20T00:05:11;97536.09;;;26.42;100.00
56719;BME280;42597;40.636;0.278;2023-08-20T00:07:36;97538.44;;;26.69;100.00
56719;BME280;42597;40.636;0.278;2023-08-20T00:10:02;97535.22;;;26.83;100.00
56719;BME280;42597;40.636;0.278;2023-08-20T00:12:31;97543.53;;;26.45;100.00
56719;BME280;42597;40.636;0.278;2023-08-20T00:15:02;97529.69;;;26.57;100.00
56719;BME280;42597;40.636;0.278;2023-08-20T00:17:35;97531.91;;;26.63;100.00
56719;BME280;42597;40.636;0.278;2023-08-20T00:20:02;97536.13;;;26.54;100.00
56719;BME280;42597;40.636;0.278;2023-08-20T00:22:36;97534.56;;;26.53;100.00
56719;BME280;42597;40.636;0.278;2023-08-20T00:25:02;97531.31;;;26.29;100.00
56719;BME280;42597;40.636;0.278;2023-08-20T00:27:29;97533.06;;;26.23;100.00
56719;BME280;42597;40.636;0.278;2023-08-20T00:29:55;97535.56;;;26.98;100.00
56719;BME280;42597;40.636;0.278;2023-08-20T00:32:20;97529.34;;;26.68;100.00
56719;BME280;42597;40.636;0.278;2023-08-20T00:34:46;97534.44;;;26.57;100.00
56719;BME280;42597;40.636;0.278;2023-08-20T00:37:11;97537.34;;;26.12;100.00
56719;BME280;42597;40.636;0.278;2023-08-20T00:39:37;97538.22;;;26.08;100.00
56719;BME280;42597;40.636;0.278;2023-08-20T00:42:03;97525.59;;;26.07;100.00
56719;BME280;42597;40.636;0.278;2023-08-20T00:44:30;97526.34;;;25.95;100.00
56719;BME280;42597;40.636;0.278;2023-08-20T00:46:56;97538.31;;;26.05;100.00
56719;BME280;42597;40.636;0.278;2023-08-20T00:49:22;97528.78;;;25.93;100.00
56719;BME280;42597;40.636;0.278;2023-08-20T00:51:50;97530.28;;;26.11;100.00
56719;BME280;42597;40.636;0.278;2023-08-20T00:54:16;97530.38;;;26.07;100.00
56719;BME280;42597;40.636;0.278;2023-08-20T00:56:42;97528.25;;;25.98;100.00
56719;BME280;42597;40.636;0.278;2023-08-20T00:59:08;97528.06;;;26.05;100.00
56719;BME280;42597;40.636;0.278;2023-08-20T01:01:34;97520.63;;;26.02;100.00
56719;BME280;42597;40.636;0.278;2023-08-20T01:03:59;97517.75;;;26.19;100.00
56719;BME280;42597;40.636;0.278;2023-08-20T01:12:03;97514.59;;;25.91;100.00
56719;BME280;42597;40.636;0.278;2023-08-20T01:14:28;97515.41;;;26.04;100.00
56719;BME280;42597;40.636;0.278;2023-08-20T01:16:54;97514.31;;;26.15;100.00
56719;BME280;42597;40.636;0.278;2023-08-20T01:19:21;97512.31;;;26.02;100.00
56719;BME280;42597;40.636;0.278;2023-08-20T01:22:12;97516.03;;;25.67;100.00
56719;BME280;42597;40.636;0.278;2023-08-20T01:28:03;97501.81;;;26.36;98.18
56719;BME280;42597;40.636;0.278;2023-08-20T01:30:34;97508.88;;;26.11;100.00
56719;BME280;42597;40.636;0.278;2023-08-20T01:32:59;97501.16;;;26.31;98.46
56719;BME280;42597;40.636;0.278;2023-08-20T01:35:25;97501.84;;;25.65;100.00
56719;BME280;42597;40.636;0.278;2023-08-20T01:37:52;97504.66;;;25.48;100.00
56719;BME280;42597;40.636;0.278;2023-08-20T01:40:17;97504.84;;;25.57;100.00
56719;BME280;42597;40.636;0.278;2023-08-20T01:42:43;97497.34;;;25.71;100.00
56719;BME280;42597;40.636;0.278;2023-08-20T01:45:09;97497.44;;;25.67;100.00
56719;BME280;42597;40.636;0.278;2023-08-20T01:47:36;97503.16;;;25.60;100.00
56719;BME280;42597;40.636;0.278;2023-08-20T01:50:02;97505.50;;;26.45;100.00
56719;BME280;42597;40.636;0.278;2023-08-20T01:52:27;97501.56;;;26.04;97.36
56719;BME280;42597;40.636;0.278;2023-08-20T01:54:54;97511.25;;;25.54;100.00
56719;BME280;42597;40.636;0.278;2023-08-20T01:57:20;97503.63;;;25.58;100.00
56719;BME280;42597;40.636;0.278;2023-08-20T01:59:46;97508.06;;;25.69;100.00
56719;BME280;42597;40.636;0.278;2023-08-20T02:02:12;97506.56;;;26.09;100.00
56719;BME280;42597;40.636;0.278;2023-08-20T02:04:38;97504.38;;;26.30;95.36
56719;BME280;42597;40.636;0.278;2023-08-20T02:07:03;97510.97;;;25.94;97.19
56719;BME280;42597;40.636;0.278;2023-08-20T02:09:29;97514.72;;;26.00;96.12
56719;BME280;42597;40.636;0.278;2023-08-20T02:11:54;97506.38;;;25.58;97.19
56719;BME280;42597;40.636;0.278;2023-08-20T02:14:20;97511.91;;;25.58;98.38
56719;BME280;42597;40.636;0.278;2023-08-20T02:16:46;97520.94;;;25.46;97.66
56719;BME280;42597;40.636;0.278;2023-08-20T02:19:11;97510.75;;;25.72;96.51
56719;BME280;42597;40.636;0.278;2023-08-20T02:21:38;97514.59;;;25.17;99.18
56719;BME280;42597;40.636;0.278;2023-08-20T02:24:04;97520.28;;;25.26;99.07
56719;BME280;42597;40.636;0.278;2023-08-20T02:26:29;97506.25;;;25.49;98.92
56719;BME280;42597;40.636;0.278;2023-08-20T02:28:55;97507.34;;;25.52;96.65
56719;BME280;42597;40.636;0.278;2023-08-20T02:31:20;97515.00;;;25.60;96.02
56719;BME280;42597;40.636;0.278;2023-08-20T02:33:46;97511.72;;;25.66;96.27
56719;BME280;42597;40.636;0.278;2023-08-20T02:36:12;97512.97;;;25.48;95.05
56719;BME280;42597;40.636;0.278;2023-08-20T02:38:38;97517.34;;;25.78;93.98
56719;BME280;42597;40.636;0.278;2023-08-20T02:41:03;97513.56;;;26.14;97.49
56719;BME280;42597;40.636;0.278;2023-08-20T02:43:29;97510.69;;;26.18;91.75
56719;BME280;42597;40.636;0.278;2023-08-20T02:45:55;97509.75;;;25.95;96.19
56719;BME280;42597;40.636;0.278;2023-08-20T02:48:20;97510.56;;;25.50;94.86
56719;BME280;42597;40.636;0.278;2023-08-20T02:50:46;97512.88;;;25.52;95.56
56719;BME280;42597;40.636;0.278;2023-08-20T02:53:12;97517.03;;;25.44;95.00
56719;BME280;42597;40.636;0.278;2023-08-20T02:55:37;97509.00;;;25.49;94.55
56719;BME280;42597;40.636;0.278;2023-08-20T02:58:03;97513.00;;;25.32;95.38
56719;BME280;42597;40.636;0.278;2023-08-20T03:00:30;97519.22;;;25.36;94.71
56719;BME280;42597;40.636;0.278;2023-08-20T03:02:56;97511.41;;;25.47;93.76
56719;BME280;42597;40.636;0.278;2023-08-20T03:05:22;97520.81;;;25.21;94.79
56719;BME280;42597;40.636;0.278;2023-08-20T03:07:47;97521.13;;;25.06;96.73
56719;BME280;42597;40.636;0.278;2023-08-20T03:10:13;97514.91;;;25.02;96.97
56719;BME280;42597;40.636;0.278;2023-08-20T03:12:38;97509.50;;;25.15;96.58
56719;BME280;42597;40.636;0.278;2023-08-20T03:15:04;97516.13;;;25.34;95.28
56719;BME280;42597;40.636;0.278;2023-08-20T03:17:30;97517.16;;;25.24;94.18
56719;BME280;42597;40.636;0.278;2023-08-20T03:19:59;97514.91;;;25.02;94.76
56719;BME280;42597;40.636;0.278;2023-08-20T03:22:26;97522.44;;;24.85;95.67
56719;BME280;42597;40.636;0.278;2023-08-20T03:24:53;97513.63;;;25.07;94.12
56719;BME280;42597;40.636;0.278;2023-08-20T03:27:19;97509.84;;;25.01;93.90
56719;BME280;42597;40.636;0.278;2023-08-20T03:29:45;97508.41;;;25.71;92.69
56719;BME280;42597;40.636;0.278;2023-08-20T03:32:11;97515.78;;;25.32;90.08
56719;BME280;42597;40.636;0.278;2023-08-20T03:34:37;97510.78;;;25.27;91.65
56719;BME280;42597;40.636;0.278;2023-08-20T03:37:03;97515.59;;;25.06;91.25
56719;BME280;42597;40.636;0.278;2023-08-20T03:39:29;97520.09;;;25.33;98.37
56719;BME280;42597;40.636;0.278;2023-08-20T03:41:55;97512.50;;;24.88;91.76
56719;BME280;42597;40.636;0.278;2023-08-20T03:44:20;97509.06;;;25.17;91.08
56719;BME280;42597;40.636;0.278;2023-08-20T03:46:46;97517.88;;;25.11;91.42
56719;BME280;42597;40.636;0.278;2023-08-20T03:49:12;97519.25;;;25.20;89.23
56719;BME280;42597;40.636;0.278;2023-08-20T03:51:37;97520.78;;;25.04;88.67
56719;BME280;42597;40.636;0.278;2023-08-20T03:54:03;97516.38;;;25.07;88.63
56719;BME280;42597;40.636;0.278;2023-08-20T03:56:29;97522.34;;;24.89;90.01
56719;BME280;42597;40.636;0.278;2023-08-20T03:58:55;97524.06;;;24.83;89.70
56719;BME280;42597;40.636;0.278;2023-08-20T04:01:20;97515.25;;;25.04;88.17
56719;BME280;42597;40.636;0.278;2023-08-20T04:03:46;97518.03;;;25.37;87.21
56719;BME280;42597;40.636;0.278;2023-08-20T04:06:13;97517.88;;;25.11;90.81
56719;BME280;42597;40.636;0.278;2023-08-20T04:08:38;97520.44;;;25.02;88.01
56719;BME280;42597;40.636;0.278;2023-08-20T04:11:04;97510.06;;;25.06;89.01
56719;BME280;42597;40.636;0.278;2023-08-20T04:13:29;97513.00;;;25.32;91.00
56719;BME280;42597;40.636;0.278;2023-08-20T04:15:55;97514.66;;;24.80;90.58
56719;BME280;42597;40.636;0.278;2023-08-20T04:18:21;97510.75;;;24.45;91.62
56719;BME280;42597;40.636;0.278;2023-08-20T04:20:49;97508.84;;;25.07;92.52
56719;BME280;42597;40.636;0.278;2023-08-20T04:23:14;97510.41;;;24.92;89.77
56719;BME280;42597;40.636;0.278;2023-08-20T04:25:40;97511.91;;;24.97;89.80
56719;BME280;42597;40.636;0.278;2023-08-20T04:28:06;97512.84;;;25.06;90.75
56719;BME280;42597;40.636;0.278;2023-08-20T04:30:34;97514.75;;;24.77;90.62
56719;BME280;42597;40.636;0.278;2023-08-20T04:32:59;97523.38;;;24.79;89.45
56719;BME280;42597;40.636;0.278;2023-08-20T04:35:25;97515.25;;;24.88;88.27
56719;BME280;42597;40.636;0.278;2023-08-20T04:37:50;97515.16;;;24.59;88.88
56719;BME280;42597;40.636;0.278;2023-08-20T04:40:16;97521.28;;;24.50;89.33
56719;BME280;42597;40.636;0.278;2023-08-20T04:42:41;97524.06;;;24.30;89.52
56719;BME280;42597;40.636;0.278;2023-08-20T04:45:07;97528.94;;;24.23;89.94
56719;BME280;42597;40.636;0.278;2023-08-20T04:47:33;97522.00;;;24.87;88.09
56719;BME280;42597;40.636;0.278;2023-08-20T04:49:59;97529.59;;;24.83;86.14
56719;BME280;42597;40.636;0.278;2023-08-20T04:52:24;97522.91;;;24.28;88.56
56719;BME280;42597;40.636;0.278;2023-08-20T04:54:50;97530.75;;;23.93;89.27
56719;BME280;42597;40.636;0.278;2023-08-20T04:57:15;97534.06;;;24.04;89.15
56719;BME280;42597;40.636;0.278;2023-08-20T04:59:41;97536.66;;;24.11;88.29
56719;BME280;42597;40.636;0.278;2023-08-20T05:02:13;97535.97;;;24.07;88.05
56719;BME280;42597;40.636;0.278;2023-08-20T05:04:38;97534.53;;;24.19;87.16
56719;BME280;42597;40.636;0.278;2023-08-20T05:07:04;97541.34;;;24.14;86.56
56719;BME280;42597;40.636;0.278;2023-08-20T05:09:30;97546.22;;;24.07;86.63
56719;BME280;42597;40.636;0.278;2023-08-20T05:11:55;97540.25;;;23.92;87.15
56719;BME280;42597;40.636;0.278;2023-08-20T05:14:21;97542.00;;;24.02;86.61
56719;BME280;42597;40.636;0.278;2023-08-20T05:16:46;97549.56;;;23.78;87.29
56719;BME280;42597;40.636;0.278;2023-08-20T05:19:12;97545.44;;;24.46;85.35
56719;BME280;42597;40.636;0.278;2023-08-20T05:21:37;97548.84;;;23.94;86.55
56719;BME280;42597;40.636;0.278;2023-08-20T05:24:03;97555.78;;;24.02;86.42
56719;BME280;42597;40.636;0.278;2023-08-20T05:26:29;97544.75;;;24.42;85.51
56719;BME280;42597;40.636;0.278;2023-08-20T05:28:55;97549.69;;;24.31;84.15
56719;BME280;42597;40.636;0.278;2023-08-20T05:31:21;97557.13;;;23.74;86.07
56719;BME280;42597;40.636;0.278;2023-08-20T05:33:46;97545.41;;;23.90;85.34
56719;BME280;42597;40.636;0.278;2023-08-20T05:36:12;97551.75;;;23.87;85.93
56719;BME280;42597;40.636;0.278;2023-08-20T05:38:37;97554.69;;;24.36;85.98
56719;BME280;42597;40.636;0.278;2023-08-20T05:41:03;97557.78;;;24.94;86.41
56719;BME280;42597;40.636;0.278;2023-08-20T05:43:28;97558.19;;;24.40;84.31
56719;BME280;42597;40.636;0.278;2023-08-20T05:45:54;97555.91;;;24.15;83.94
56719;BME280;42597;40.636;0.278;2023-08-20T05:48:19;97561.53;;;24.68;87.07
56719;BME280;42597;40.636;0.278;2023-08-20T05:50:45;97563.53;;;24.67;82.87
56719;BME280;42597;40.636;0.278;2023-08-20T05:53:11;97555.56;;;24.33;82.09
56719;BME280;42597;40.636;0.278;2023-08-20T05:55:37;97564.03;;;24.62;84.77
56719;BME280;42597;40.636;0.278;2023-08-20T05:58:04;97570.63;;;24.48;81.12
56719;BME280;42597;40.636;0.278;2023-08-20T06:00:29;97562.03;;;24.06;83.07
56719;BME280;42597;40.636;0.278;2023-08-20T06:02:55;97562.19;;;24.35;82.32
56719;BME280;42597;40.636;0.278;2023-08-20T06:05:20;97565.69;;;24.40;80.88
56719;BME280;42597;40.636;0.278;2023-08-20T06:07:46;97559.81;;;24.57;79.88
56719;BME280;42597;40.636;0.278;2023-08-20T06:10:11;97562.91;;;24.76;80.87
56719;BME280;42597;40.636;0.278;2023-08-20T06:12:37;97557.09;;;25.06;81.98
56719;BME280;42597;40.636;0.278;2023-08-20T06:15:04;97568.84;;;25.10;79.77
56719;BME280;42597;40.636;0.278;2023-08-20T06:17:30;97565.34;;;24.74;80.69
56719;BME280;42597;40.636;0.278;2023-08-20T06:19:55;97561.91;;;24.86;80.88
56719;BME280;42597;40.636;0.278;2023-08-20T06:22:21;97560.00;;;24.99;80.70
56719;BME280;42597;40.636;0.278;2023-08-20T06:24:46;97564.38;;;25.17;80.36
56719;BME280;42597;40.636;0.278;2023-08-20T06:27:12;97568.84;;;25.10;79.29
56719;BME280;42597;40.636;0.278;2023-08-20T06:29:37;97578.97;;;25.17;78.93
56719;BME280;42597;40.636;0.278;2023-08-20T06:32:04;97571.28;;;25.25;77.65
56719;BME280;42597;40.636;0.278;2023-08-20T06:34:29;97571.28;;;25.25;78.16
56719;BME280;42597;40.636;0.278;2023-08-20T06:36:55;97570.84;;;25.43;76.39
56719;BME280;42597;40.636;0.278;2023-08-20T06:39:20;97566.41;;;25.62;76.38
56719;BME280;42597;40.636;0.278;2023-08-20T06:41:46;97574.94;;;25.67;74.23
56719;BME280;42597;40.636;0.278;2023-08-20T06:44:11;97584.75;;;25.39;75.41
56719;BME280;42597;40.636;0.278;2023-08-20T06:46:37;97581.28;;;25.51;75.35
56719;BME280;42597;40.636;0.278;2023-08-20T06:49:03;97588.25;;;25.72;75.47
56719;BME280;42597;40.636;0.278;2023-08-20T06:51:28;97582.38;;;25.87;74.45
56719;BME280;42597;40.636;0.278;2023-08-20T06:53:54;97584.50;;;25.95;74.25
56719;BME280;42597;40.636;0.278;2023-08-20T06:56:24;97585.66;;;26.11;74.90
56719;BME280;42597;40.636;0.278;2023-08-20T06:58:50;97584.34;;;26.15;74.73
56719;BME280;42597;40.636;0.278;2023-08-20T07:01:16;97590.22;;;26.17;74.02
56719;BME280;42597;40.636;0.278;2023-08-20T07:03:42;97590.09;;;26.21;75.20
56719;BME280;42597;40.636;0.278;2023-08-20T07:06:10;97594.19;;;26.45;75.01
56719;BME280;42597;40.636;0.278;2023-08-20T07:08:36;97593.66;;;26.50;75.18
56719;BME280;42597;40.636;0.278;2023-08-20T07:11:04;97597.88;;;26.55;74.85
56719;BME280;42597;40.636;0.278;2023-08-20T07:13:29;97599.00;;;26.57;76.70
56719;BME280;42597;40.636;0.278;2023-08-20T07:15:55;97603.63;;;26.73;84.01
56719;BME280;42597;40.636;0.278;2023-08-20T07:18:20;97605.66;;;26.86;80.66
56719;BME280;42597;40.636;0.278;2023-08-20T07:20:46;97600.66;;;26.80;81.51
56719;BME280;42597;40.636;0.278;2023-08-20T07:23:11;97603.31;;;26.84;83.88
56719;BME280;42597;40.636;0.278;2023-08-20T07:25:38;97605.22;;;26.87;91.04
56719;BME280;42597;40.636;0.278;2023-08-20T07:28:08;97602.22;;;26.94;94.55
56719;BME280;42597;40.636;0.278;2023-08-20T07:30:34;97605.75;;;27.07;95.40
56719;BME280;42597;40.636;0.278;2023-08-20T07:33:01;97603.63;;;27.37;96.75
56719;BME280;42597;40.636;0.278;2023-08-20T07:35:26;97601.13;;;27.30;96.88
56719;BME280;42597;40.636;0.278;2023-08-20T07:37:52;97599.31;;;27.36;96.43
56719;BME280;42597;40.636;0.278;2023-08-20T07:40:18;97604.41;;;27.50;92.64
56719;BME280;42597;40.636;0.278;2023-08-20T07:42:43;97611.66;;;27.70;90.87
56719;BME280;42597;40.636;0.278;2023-08-20T07:45:09;97602.03;;;27.62;90.36
56719;BME280;42597;40.636;0.278;2023-08-20T07:47:36;97608.78;;;27.86;90.43
56719;BME280;42597;40.636;0.278;2023-08-20T07:50:03;97606.06;;;27.95;89.70
56719;BME280;42597;40.636;0.278;2023-08-20T07:52:28;97605.19;;;27.98;89.74
56719;BME280;42597;40.636;0.278;2023-08-20T07:54:54;97610.34;;;28.09;89.43
56719;BME280;42597;40.636;0.278;2023-08-20T07:57:19;97606.84;;;28.18;88.76
56719;BME280;42597;40.636;0.278;2023-08-20T07:59:45;97617.44;;;28.32;88.46
56719;BME280;42597;40.636;0.278;2023-08-20T08:02:10;97620.31;;;28.41;87.09
56719;BME280;42597;40.636;0.278;2023-08-20T08:04:36;97618.38;;;28.51;85.35
56719;BME280;42597;40.636;0.278;2023-08-20T08:07:02;97613.69;;;28.70;84.90
56719;BME280;42597;40.636;0.278;2023-08-20T08:09:31;97618.34;;;28.73;84.91
56719;BME280;42597;40.636;0.278;2023-08-20T08:11:58;97619.59;;;28.81;83.99
56719;BME280;42597;40.636;0.278;2023-08-20T08:14:24;97625.63;;;28.48;85.08
56719;BME280;42597;40.636;0.278;2023-08-20T08:16:50;97617.59;;;28.50;85.34
56719;BME280;42597;40.636;0.278;2023-08-20T08:19:17;97623.66;;;29.11;81.01
56719;BME280;42597;40.636;0.278;2023-08-20T08:21:43;97626.91;;;29.19;80.41
56719;BME280;42597;40.636;0.278;2023-08-20T08:24:09;97631.22;;;29.11;81.41
56719;BME280;42597;40.636;0.278;2023-08-20T08:26:35;97631.50;;;29.04;80.21
56719;BME280;42597;40.636;0.278;2023-08-20T08:29:05;97628.13;;;29.18;78.59
56719;BME280;42597;40.636;0.278;2023-08-20T08:31:30;97628.09;;;29.09;78.79
56719;BME280;42597;40.636;0.278;2023-08-20T08:33:56;97630.34;;;29.32;79.53
56719;BME280;42597;40.636;0.278;2023-08-20T08:36:21;97622.91;;;29.29;79.47
56719;BME280;42597;40.636;0.278;2023-08-20T08:38:47;97626.31;;;29.33;80.18
56719;BME280;42597;40.636;0.278;2023-08-20T08:41:13;97632.47;;;29.59;78.66
56719;BME280;42597;40.636;0.278;2023-08-20T08:43:39;97628.72;;;29.62;78.67
56719;BME280;42597;40.636;0.278;2023-08-20T08:46:13;97622.44;;;29.89;77.26
56719;BME280;42597;40.636;0.278;2023-08-20T08:48:40;97629.88;;;29.92;78.10
56719;BME280;42597;40.636;0.278;2023-08-20T08:51:07;97626.78;;;29.99;75.75
56719;BME280;42597;40.636;0.278;2023-08-20T08:53:33;97625.53;;;30.10;76.67
56719;BME280;42597;40.636;0.278;2023-08-20T08:55:59;97626.94;;;29.96;74.99
56719;BME280;42597;40.636;0.278;2023-08-20T08:58:25;97622.28;;;30.02;72.65
56719;BME280;42597;40.636;0.278;2023-08-20T09:00:51;97620.28;;;30.21;73.66
56719;BME280;42597;40.636;0.278;2023-08-20T09:03:16;97630.00;;;30.35;72.60
56719;BME280;42597;40.636;0.278;2023-08-20T09:05:49;97623.84;;;30.40;72.30
56719;BME280;42597;40.636;0.278;2023-08-20T09:08:33;97618.06;;;30.53;72.48
56719;BME280;42597;40.636;0.278;2023-08-20T09:11:01;97624.72;;;30.64;71.69
56719;BME280;42597;40.636;0.278;2023-08-20T09:13:37;97622.22;;;30.76;70.89
56719;BME280;42597;40.636;0.278;2023-08-20T09:16:04;97625.75;;;30.67;71.44
56719;BME280;42597;40.636;0.278;2023-08-20T09:18:31;97616.53;;;30.52;69.37
56719;BME280;42597;40.636;0.278;2023-08-20T09:20:57;97629.41;;;31.01;70.80
56719;BME280;42597;40.636;0.278;2023-08-20T09:23:28;97625.97;;;31.06;70.59
56719;BME280;42597;40.636;0.278;2023-08-20T09:25:53;97624.09;;;31.12;69.54
56719;BME280;42597;40.636;0.278;2023-08-20T09:28:19;97626.53;;;31.19;68.46
56719;BME280;42597;40.636;0.278;2023-08-20T09:30:58;97624.44;;;31.05;66.76
56719;BME280;42597;40.636;0.278;2023-08-20T09:33:27;97612.75;;;31.15;67.12
56719;BME280;42597;40.636;0.278;2023-08-20T09:35:53;97617.59;;;31.06;68.07
56719;BME280;42597;40.636;0.278;2023-08-20T09:38:23;97619.56;;;30.72;70.79
56719;BME280;42597;40.636;0.278;2023-08-20T09:40:50;97623.09;;;31.33;68.84
56719;BME280;42597;40.636;0.278;2023-08-20T09:43:18;97623.03;;;31.42;62.47
56719;BME280;42597;40.636;0.278;2023-08-20T09:45:43;97624.13;;;31.45;62.64
56719;BME280;42597;40.636;0.278;2023-08-20T09:48:12;97627.09;;;31.65;58.92
56719;BME280;42597;40.636;0.278;2023-08-20T09:50:43;97622.38;;;31.95;59.76
56719;BME280;42597;40.636;0.278;2023-08-20T09:53:26;97618.78;;;32.19;58.74
56719;BME280;42597;40.636;0.278;2023-08-20T09:55:56;97618.94;;;32.01;57.43
56719;BME280;42597;40.636;0.278;2023-08-20T09:58:26;97625.31;;;32.01;57.80
56719;BME280;42597;40.636;0.278;2023-08-20T10:00:53;97627.25;;;32.10;56.50
56719;BME280;42597;40.636;0.278;2023-08-20T10:03:20;97622.59;;;32.07;54.15
56719;BME280;42597;40.636;0.278;2023-08-20T10:05:46;97629.59;;;31.87;56.11
56719;BME280;42597;40.636;0.278;2023-08-20T10:08:15;97632.34;;;32.11;56.28
56719;BME280;42597;40.636;0.278;2023-08-20T10:10:40;97626.88;;;32.17;55.29
56719;BME280;42597;40.636;0.278;2023-08-20T10:13:06;97634.22;;;32.29;53.37
56719;BME280;42597;40.636;0.278;2023-08-20T10:15:32;97632.28;;;32.35;53.92
56719;BME280;42597;40.636;0.278;2023-08-20T10:18:01;97630.63;;;32.53;52.60
56719;BME280;42597;40.636;0.278;2023-08-20T10:20:29;97627.13;;;32.58;51.08
56719;BME280;42597;40.636;0.278;2023-08-20T10:23:00;97633.84;;;32.36;52.19
56719;BME280;42597;40.636;0.278;2023-08-20T10:25:26;97626.25;;;32.66;49.64
56719;BME280;42597;40.636;0.278;2023-08-20T10:27:53;97624.41;;;32.78;50.51
56719;BME280;42597;40.636;0.278;2023-08-20T10:30:23;97625.16;;;32.34;51.83
56719;BME280;42597;40.636;0.278;2023-08-20T10:32:57;97622.59;;;32.75;49.44
56719;BME280;42597;40.636;0.278;2023-08-20T10:35:28;97625.94;;;32.64;50.53
56719;BME280;42597;40.636;0.278;2023-08-20T10:38:14;97627.03;;;32.67;51.16
56719;BME280;42597;40.636;0.278;2023-08-20T10:40:48;97634.94;;;32.54;51.18
56719;BME280;42597;40.636;0.278;2023-08-20T10:46:25;97629.81;;;32.67;49.14
56719;BME280;42597;40.636;0.278;2023-08-20T10:48:58;97621.91;;;32.80;49.75
56719;BME280;42597;40.636;0.278;2023-08-20T10:59:29;97624.88;;;32.91;47.05
56719;BME280;42597;40.636;0.278;2023-08-20T11:01:56;97626.94;;;33.06;44.17
56719;BME280;42597;40.636;0.278;2023-08-20T11:04:25;97618.31;;;33.09;44.12
56719;BME280;42597;40.636;0.278;2023-08-20T11:06:54;97615.75;;;32.61;47.87
56719;BME280;42597;40.636;0.278;2023-08-20T11:09:24;97614.59;;;32.98;50.73
56719;BME280;42597;40.636;0.278;2023-08-20T11:11:51;97606.53;;;32.90;48.43
56719;BME280;42597;40.636;0.278;2023-08-20T11:14:18;97603.44;;;33.18;49.25
56719;BME280;42597;40.636;0.278;2023-08-20T11:16:45;97608.91;;;33.27;47.90
56719;BME280;42597;40.636;0.278;2023-08-20T11:19:12;97612.94;;;33.41;46.57
56719;BME280;42597;40.636;0.278;2023-08-20T11:21:39;97611.28;;;33.70;47.60
56719;BME280;42597;40.636;0.278;2023-08-20T11:24:06;97615.63;;;33.00;48.60
56719;BME280;42597;40.636;0.278;2023-08-20T11:26:32;97618.00;;;33.22;48.34
56719;BME280;42597;40.636;0.278;2023-08-20T11:28:58;97607.31;;;32.76;49.68
56719;BME280;42597;40.636;0.278;2023-08-20T11:31:24;97609.66;;;33.28;49.45
56719;BME280;42597;40.636;0.278;2023-08-20T11:33:50;97608.69;;;33.66;48.71
56719;BME280;42597;40.636;0.278;2023-08-20T11:36:16;97601.81;;;33.67;49.09
56719;BME280;42597;40.636;0.278;2023-08-20T11:38:42;97603.63;;;33.90;45.59
56719;BME280;42597;40.636;0.278;2023-08-20T11:41:08;97606.88;;;33.63;44.35
56719;BME280;42597;40.636;0.278;2023-08-20T11:43:33;97600.97;;;33.61;46.72
56719;BME280;42597;40.636;0.278;2023-08-20T11:45:59;97596.94;;;33.62;46.76
56719;BME280;42597;40.636;0.278;2023-08-20T11:48:25;97599.31;;;33.69;47.32
56719;BME280;42597;40.636;0.278;2023-08-20T11:50:50;97604.81;;;33.84;46.25
56719;BME280;42597;40.636;0.278;2023-08-20T11:53:21;97594.84;;;33.98;46.02
56719;BME280;42597;40.636;0.278;2023-08-20T11:55:49;97591.03;;;34.01;47.92
56719;BME280;42597;40.636;0.278;2023-08-20T11:58:15;97597.91;;;33.79;49.15
56719;BME280;42597;40.636;0.278;2023-08-20T12:00:41;97596.50;;;33.89;50.79
56719;BME280;42597;40.636;0.278;2023-08-20T12:03:08;97595.25;;;33.70;53.63
56719;BME280;42597;40.636;0.278;2023-08-20T12:05:34;97599.16;;;33.58;53.53
56719;BME280;42597;40.636;0.278;2023-08-20T12:08:01;97597.97;;;33.64;52.93
56719;BME280;42597;40.636;0.278;2023-08-20T12:10:28;97598.88;;;33.76;53.36
56719;BME280;42597;40.636;0.278;2023-08-20T12:12:55;97595.50;;;33.93;52.92
56719;BME280;42597;40.636;0.278;2023-08-20T12:15:22;97590.41;;;33.71;55.11
56719;BME280;42597;40.636;0.278;2023-08-20T12:18:05;97588.97;;;33.81;55.66
56719;BME280;42597;40.636;0.278;2023-08-20T12:20:33;97591.03;;;33.80;54.51
56719;BME280;42597;40.636;0.278;2023-08-20T12:23:00;97590.28;;;33.45;55.74
56719;BME280;42597;40.636;0.278;2023-08-20T12:25:29;97587.53;;;33.85;55.78
56719;BME280;42597;40.636;0.278;2023-08-20T12:27:54;97593.56;;;34.25;55.82
56719;BME280;42597;40.636;0.278;2023-08-20T12:30:20;97580.34;;;34.05;55.55
56719;BME280;42597;40.636;0.278;2023-08-20T12:32:45;97590.09;;;33.89;58.13
56719;BME280;42597;40.636;0.278;2023-08-20T12:35:11;97589.44;;;33.74;58.70
56719;BME280;42597;40.636;0.278;2023-08-20T12:37:36;97586.66;;;33.38;60.09
56719;BME280;42597;40.636;0.278;2023-08-20T12:40:02;97580.00;;;33.77;59.72
56719;BME280;42597;40.636;0.278;2023-08-20T12:42:30;97584.66;;;33.80;59.42
56719;BME280;42597;40.636;0.278;2023-08-20T12:44:55;97579.41;;;33.67;59.70
56719;BME280;42597;40.636;0.278;2023-08-20T12:47:21;97591.56;;;33.84;60.43
56719;BME280;42597;40.636;0.278;2023-08-20T12:49:46;97590.34;;;33.65;61.71
56719;BME280;42597;40.636;0.278;2023-08-20T12:52:12;97588.94;;;33.75;64.17
56719;BME280;42597;40.636;0.278;2023-08-20T12:54:37;97584.59;;;33.74;63.68
56719;BME280;42597;40.636;0.278;2023-08-20T12:57:03;97589.19;;;33.57;63.10
56719;BME280;42597;40.636;0.278;2023-08-20T12:59:29;97585.53;;;33.92;63.97
56719;BME280;42597;40.636;0.278;2023-08-20T13:01:54;97592.16;;;33.68;64.26
56719;BME280;42597;40.636;0.278;2023-08-20T13:04:20;97587.19;;;33.22;65.19
56719;BME280;42597;40.636;0.278;2023-08-20T13:06:46;97587.66;;;33.56;63.99
56719;BME280;42597;40.636;0.278;2023-08-20T13:09:12;97594.25;;;33.53;64.36
56719;BME280;42597;40.636;0.278;2023-08-20T13:11:42;97594.53;;;33.55;63.85
56719;BME280;42597;40.636;0.278;2023-08-20T13:14:08;97595.47;;;33.31;63.94
56719;BME280;42597;40.636;0.278;2023-08-20T13:16:34;97595.66;;;32.92;65.45